Nearby METAR Reports

 

KBVO - Bartlesville, Oklahoma, USA
Distance from station: WNW 10mi, 16km
Updated: Mon, 06-Dec-2021 12:53pm CST
Clear
Clear
 Wind from N
Wind: N 13 mph , 20 km/h, Gust: 24 mph , 39 km/h
Temperature: 43°F , 6°C
Wind Chill: 36°F , 2°C
Dew Point: 18°F , -8°C
Humidity: 36%
Barometer: 30.37 inHg , 1028.4 hPa
Clouds: Clear
Visibility: 10 miles , 16 km
2021/12/06 18:53 KBVO 061853Z AUTO 36011G21KT 10SM CLR 06/M08 A3037 RMK AO2 SLP283 T00561078
KCFV - Coffeyville, Kansas, USA
Distance from station: NNE 31mi, 49km
Updated: Mon, 06-Dec-2021 12:52pm CST
Clear
Clear
 Wind from N
Wind: N 12 mph , 19 km/h, Gust: 22 mph , 35 km/h
Temperature: 41°F , 5°C
Wind Chill: 34°F , 1°C
Dew Point: 16°F , -9°C
Humidity: 36%
Barometer: 30.36 inHg , 1028.1 hPa
Clouds: Clear
Visibility: 10 miles , 16 km
2021/12/06 18:52 KCFV 061852Z AUTO 01010G19KT 10SM CLR 05/M09 A3036 RMK AO2 SLP282 T00501089
 
KIDP - Independence, Kansas, USA
Distance from station: N 32mi, 52km
Updated: Mon, 06-Dec-2021 1:35pm CST
Clear
Clear
 Wind from N
Wind: N 12 mph , 19 km/h
Temperature: 41°F , 5°C
Wind Chill: 34°F , 1°C
Dew Point: 18°F , -8°C
Humidity: 39%
Barometer: 30.35 inHg , 1027.8 hPa
Clouds: Clear
Visibility: 10 miles , 16 km
2021/12/06 19:35 KIDP 061935Z AUTO 36010KT 10SM CLR 05/M08 A3035 RMK AO2 T00541084
KGCM - Claremore, Oklahoma, USA
Distance from station: SE 35mi, 56km
Updated: Mon, 06-Dec-2021 1:35pm CST
Clear
Clear
 Wind from NNE
Wind: NNE 9 mph , 15 km/h, Gust: 16 mph , 26 km/h
Temperature: 43°F , 6°C
Wind Chill: 38°F , 3°C
Dew Point: 14°F , -10°C
Humidity: 31%
Barometer: 30.33 inHg , 1027.1 hPa
Clouds: Clear
Visibility: 10 miles , 16 km
2021/12/06 19:35 KGCM 061935Z AUTO 02008G14KT 10SM CLR 06/M10 A3033 RMK AO2
 
KTUL - Tulsa, Oklahoma, USA
Distance from station: S 35mi, 56km
Updated: Mon, 06-Dec-2021 12:53pm CST
Few Clouds
Few Clouds
 Wind from NNW
Wind: NNW 14 mph , 22 km/h
Temperature: 43°F , 6°C
Wind Chill: 36°F , 2°C
Dew Point: 19°F , -7°C
Humidity: 39%
Barometer: 30.34 inHg , 1027.4 hPa
Clouds: Few Clouds
Visibility: 10 miles , 16 km
Cloud details: Few Clouds 25000 ft
2021/12/06 18:53 KTUL 061853Z 34012KT 10SM FEW250 06/M07 A3034 RMK AO2 SLP275 T00611067
KRVS - Tulsa, Oklahoma, USA
Distance from station: S 46mi, 74km
Updated: Mon, 06-Dec-2021 12:53pm CST
Clear
Clear
 Wind from NNE
Wind: NNE 12 mph , 19 km/h, Gust: 21 mph , 33 km/h
Temperature: 43°F , 6°C
Wind Chill: 37°F , 3°C
Dew Point: 18°F , -8°C
Humidity: 36%
Barometer: 30.34 inHg , 1027.4 hPa
Clouds: Clear
Visibility: 10 miles , 16 km
2021/12/06 18:53 KRVS 061853Z 02010G18KT 10SM CLR 06/M08 A3034 RMK AO2 SLP280 T00611078
 
KPPF - Parsons, Kansas, USA
Distance from station: NNE 48mi, 76km
Updated: Mon, 06-Dec-2021 12:52pm CST
Clear
Clear
 Wind from N
Wind: N 12 mph , 19 km/h, Gust: 22 mph , 35 km/h
Temperature: 43°F , 6°C
Wind Chill: 37°F , 3°C
Dew Point: 16°F , -9°C
Humidity: 34%
Barometer: 30.36 inHg , 1028.1 hPa
Clouds: Clear
Visibility: 10 miles , 16 km
2021/12/06 18:52 KPPF 061852Z AUTO 01010G19KT 10SM CLR 06/M09 A3036 RMK AO2 SLP284 T00561089
KGMJ - Grove, Oklahoma, USA
Distance from station: E 63mi, 101km
Updated: Mon, 06-Dec-2021 1:35pm CST
Clear
Clear
 Wind from NNW
Wind: NNW 9 mph , 15 km/h
Temperature: 41°F , 5°C
Wind Chill: 35°F , 2°C
Dew Point: 21°F , -6°C
Humidity: 45%
Barometer: 30.32 inHg , 1026.8 hPa
Clouds: Clear
Visibility: 10 miles , 16 km
2021/12/06 19:35 KGMJ 061935Z AUTO 34008KT 10SM CLR 05/M06 A3032 RMK AO2
 
KPNC - Ponca City, Oklahoma, USA
Distance from station: W 69mi, 111km
Updated: Mon, 06-Dec-2021 12:53pm CST
Clear
Clear
 Wind from NNE
Wind: NNE 14 mph , 22 km/h
Temperature: 43°F , 6°C
Wind Chill: 36°F , 2°C
Dew Point: 14°F , -10°C
Humidity: 31%
Barometer: 30.36 inHg , 1028.1 hPa
Clouds: Clear
Visibility: 10 miles , 16 km
2021/12/06 18:53 KPNC 061853Z AUTO 02012KT 10SM CLR 06/M10 A3036 RMK AO2 SLP284 T00561100
KCNU - Chanute, Kansas, USA
Distance from station: NNE 69mi, 112km
Updated: Mon, 06-Dec-2021 12:52pm CST
Clear
Clear
 Wind from NNE
Wind: NNE 13 mph , 20 km/h, Gust: 20 mph , 31 km/h
Temperature: 41°F , 5°C
Wind Chill: 34°F , 1°C
Dew Point: 18°F , -8°C
Humidity: 39%
Barometer: 30.36 inHg , 1028.1 hPa
Clouds: Clear
Visibility: 10 miles , 16 km
2021/12/06 18:52 KCNU 061852Z AUTO 02011G17KT 10SM CLR 05/M08 A3036 RMK AO2 SLP283 T00501083